sensor_id;sensor_type;location;lat;lon;timestamp;temperature;humidity
10245;DHT22;5167;52.164;10.530;2024-01-30T00:00:36;6.10;24.50
10245;DHT22;5167;52.164;10.530;2024-01-30T00:03:02;6.10;24.10
10245;DHT22;5167;52.164;10.530;2024-01-30T00:05:27;6.10;23.90
10245;DHT22;5167;52.164;10.530;2024-01-30T00:07:53;6.10;24.60
10245;DHT22;5167;52.164;10.530;2024-01-30T00:10:18;6.10;24.60
10245;DHT22;5167;52.164;10.530;2024-01-30T00:12:44;6.10;24.90
10245;DHT22;5167;52.164;10.530;2024-01-30T00:15:09;6.10;25.40
10245;DHT22;5167;52.164;10.530;2024-01-30T00:17:36;6.10;25.10
10245;DHT22;5167;52.164;10.530;2024-01-30T00:20:03;6.10;24.60
10245;DHT22;5167;52.164;10.530;2024-01-30T00:22:31;6.10;24.90
10245;DHT22;5167;52.164;10.530;2024-01-30T00:24:57;6.20;24.90
10245;DHT22;5167;52.164;10.530;2024-01-30T00:27:22;6.10;25.00
10245;DHT22;5167;52.164;10.530;2024-01-30T00:29:48;6.20;24.70
10245;DHT22;5167;52.164;10.530;2024-01-30T00:32:13;6.10;25.00
10245;DHT22;5167;52.164;10.530;2024-01-30T00:34:39;6.10;25.00
10245;DHT22;5167;52.164;10.530;2024-01-30T00:37:04;6.10;24.70
10245;DHT22;5167;52.164;10.530;2024-01-30T00:39:29;6.10;24.90
10245;DHT22;5167;52.164;10.530;2024-01-30T00:41:55;6.10;24.70
10245;DHT22;5167;52.164;10.530;2024-01-30T00:44:20;6.20;25.10
10245;DHT22;5167;52.164;10.530;2024-01-30T00:46:46;6.10;25.00
10245;DHT22;5167;52.164;10.530;2024-01-30T00:49:11;6.20;25.30
10245;DHT22;5167;52.164;10.530;2024-01-30T00:51:37;6.10;26.10
10245;DHT22;5167;52.164;10.530;2024-01-30T00:54:02;6.10;25.80
10245;DHT22;5167;52.164;10.530;2024-01-30T00:56:28;6.20;26.00
10245;DHT22;5167;52.164;10.530;2024-01-30T00:58:54;6.10;25.80
10245;DHT22;5167;52.164;10.530;2024-01-30T01:01:19;6.10;25.90
10245;DHT22;5167;52.164;10.530;2024-01-30T01:03:45;6.20;25.50
10245;DHT22;5167;52.164;10.530;2024-01-30T01:06:10;6.20;25.80
10245;DHT22;5167;52.164;10.530;2024-01-30T01:08:36;6.10;25.20
10245;DHT22;5167;52.164;10.530;2024-01-30T01:11:01;6.10;26.00
10245;DHT22;5167;52.164;10.530;2024-01-30T01:13:28;6.10;25.60
10245;DHT22;5167;52.164;10.530;2024-01-30T01:15:54;6.10;25.70
10245;DHT22;5167;52.164;10.530;2024-01-30T01:18:20;6.20;25.60
10245;DHT22;5167;52.164;10.530;2024-01-30T01:20:45;6.10;25.10
10245;DHT22;5167;52.164;10.530;2024-01-30T01:23:11;6.10;25.10
10245;DHT22;5167;52.164;10.530;2024-01-30T01:25:36;6.10;25.50
10245;DHT22;5167;52.164;10.530;2024-01-30T01:28:02;6.10;25.30
10245;DHT22;5167;52.164;10.530;2024-01-30T01:30:28;6.10;25.20
10245;DHT22;5167;52.164;10.530;2024-01-30T01:32:54;6.00;25.00
10245;DHT22;5167;52.164;10.530;2024-01-30T01:35:26;6.00;25.50
10245;DHT22;5167;52.164;10.530;2024-01-30T01:37:52;6.00;25.50
10245;DHT22;5167;52.164;10.530;2024-01-30T01:40:24;6.00;25.60
10245;DHT22;5167;52.164;10.530;2024-01-30T01:42:51;6.00;26.20
10245;DHT22;5167;52.164;10.530;2024-01-30T01:45:20;6.00;25.60
10245;DHT22;5167;52.164;10.530;2024-01-30T01:47:48;6.00;25.60
10245;DHT22;5167;52.164;10.530;2024-01-30T01:50:15;6.00;26.50
10245;DHT22;5167;52.164;10.530;2024-01-30T01:52:46;6.00;27.20
10245;DHT22;5167;52.164;10.530;2024-01-30T01:55:12;6.00;27.20
10245;DHT22;5167;52.164;10.530;2024-01-30T01:57:38;6.10;27.00
10245;DHT22;5167;52.164;10.530;2024-01-30T02:00:04;6.00;27.30
10245;DHT22;5167;52.164;10.530;2024-01-30T02:02:30;6.00;27.20
10245;DHT22;5167;52.164;10.530;2024-01-30T02:04:57;6.00;26.80
10245;DHT22;5167;52.164;10.530;2024-01-30T02:07:24;6.00;27.10
10245;DHT22;5167;52.164;10.530;2024-01-30T02:09:49;6.00;27.90
10245;DHT22;5167;52.164;10.530;2024-01-30T02:12:15;6.00;28.30
10245;DHT22;5167;52.164;10.530;2024-01-30T02:14:47;6.00;28.70
10245;DHT22;5167;52.164;10.530;2024-01-30T02:17:14;6.00;29.90
10245;DHT22;5167;52.164;10.530;2024-01-30T02:19:39;6.00;29.90
10245;DHT22;5167;52.164;10.530;2024-01-30T02:22:05;6.00;31.00
10245;DHT22;5167;52.164;10.530;2024-01-30T02:24:31;6.10;30.60
10245;DHT22;5167;52.164;10.530;2024-01-30T02:26:57;6.10;30.00
10245;DHT22;5167;52.164;10.530;2024-01-30T02:29:22;6.10;29.80
10245;DHT22;5167;52.164;10.530;2024-01-30T02:31:48;6.00;29.40
10245;DHT22;5167;52.164;10.530;2024-01-30T02:34:14;6.00;29.40
10245;DHT22;5167;52.164;10.530;2024-01-30T02:36:43;6.00;29.40
10245;DHT22;5167;52.164;10.530;2024-01-30T02:39:09;6.00;29.30
10245;DHT22;5167;52.164;10.530;2024-01-30T02:41:35;6.00;29.70
10245;DHT22;5167;52.164;10.530;2024-01-30T02:44:01;6.00;31.20
10245;DHT22;5167;52.164;10.530;2024-01-30T02:46:26;5.90;31.40
10245;DHT22;5167;52.164;10.530;2024-01-30T02:48:52;5.80;31.60
10245;DHT22;5167;52.164;10.530;2024-01-30T02:51:17;5.80;32.30
10245;DHT22;5167;52.164;10.530;2024-01-30T02:53:43;5.80;33.10
10245;DHT22;5167;52.164;10.530;2024-01-30T02:56:08;5.80;33.40
10245;DHT22;5167;52.164;10.530;2024-01-30T02:58:38;5.80;33.70
10245;DHT22;5167;52.164;10.530;2024-01-30T03:01:04;5.80;34.00
10245;DHT22;5167;52.164;10.530;2024-01-30T03:03:29;5.80;33.70
10245;DHT22;5167;52.164;10.530;2024-01-30T03:05:55;5.90;34.00
10245;DHT22;5167;52.164;10.530;2024-01-30T03:08:20;5.90;33.00
10245;DHT22;5167;52.164;10.530;2024-01-30T03:10:46;5.90;32.80
10245;DHT22;5167;52.164;10.530;2024-01-30T03:13:12;6.10;31.80
10245;DHT22;5167;52.164;10.530;2024-01-30T03:15:37;5.90;31.50
10245;DHT22;5167;52.164;10.530;2024-01-30T03:18:03;5.90;31.30
10245;DHT22;5167;52.164;10.530;2024-01-30T03:20:31;5.90;32.00
10245;DHT22;5167;52.164;10.530;2024-01-30T03:22:57;5.90;31.50
10245;DHT22;5167;52.164;10.530;2024-01-30T03:25:22;5.80;31.00
10245;DHT22;5167;52.164;10.530;2024-01-30T03:27:48;5.80;30.90
10245;DHT22;5167;52.164;10.530;2024-01-30T03:30:14;5.80;31.70
10245;DHT22;5167;52.164;10.530;2024-01-30T03:32:39;5.70;31.70
10245;DHT22;5167;52.164;10.530;2024-01-30T03:35:05;5.70;32.00
10245;DHT22;5167;52.164;10.530;2024-01-30T03:37:31;5.60;32.10
10245;DHT22;5167;52.164;10.530;2024-01-30T03:39:56;5.70;32.40
10245;DHT22;5167;52.164;10.530;2024-01-30T03:42:22;5.70;32.60
10245;DHT22;5167;52.164;10.530;2024-01-30T03:44:48;5.70;32.50
10245;DHT22;5167;52.164;10.530;2024-01-30T03:47:13;5.70;32.40
10245;DHT22;5167;52.164;10.530;2024-01-30T03:49:39;5.70;32.40
10245;DHT22;5167;52.164;10.530;2024-01-30T03:52:04;5.70;32.20
10245;DHT22;5167;52.164;10.530;2024-01-30T03:54:30;5.70;32.60
10245;DHT22;5167;52.164;10.530;2024-01-30T03:56:55;5.70;31.70
10245;DHT22;5167;52.164;10.530;2024-01-30T03:59:21;5.70;32.00
10245;DHT22;5167;52.164;10.530;2024-01-30T04:01:50;5.70;32.20
10245;DHT22;5167;52.164;10.530;2024-01-30T04:04:17;5.70;32.40
10245;DHT22;5167;52.164;10.530;2024-01-30T04:06:42;5.70;32.50
10245;DHT22;5167;52.164;10.530;2024-01-30T04:09:08;5.60;32.30
10245;DHT22;5167;52.164;10.530;2024-01-30T04:11:33;5.60;32.60
10245;DHT22;5167;52.164;10.530;2024-01-30T04:13:59;5.60;32.70
10245;DHT22;5167;52.164;10.530;2024-01-30T04:16:24;5.60;33.50
10245;DHT22;5167;52.164;10.530;2024-01-30T04:18:51;5.60;32.80
10245;DHT22;5167;52.164;10.530;2024-01-30T04:21:16;5.60;33.20
10245;DHT22;5167;52.164;10.530;2024-01-30T04:23:42;5.60;33.20
10245;DHT22;5167;52.164;10.530;2024-01-30T04:26:07;5.60;33.90
10245;DHT22;5167;52.164;10.530;2024-01-30T04:28:33;5.60;33.80
10245;DHT22;5167;52.164;10.530;2024-01-30T04:30:58;5.50;34.30
10245;DHT22;5167;52.164;10.530;2024-01-30T04:33:24;5.50;34.60
10245;DHT22;5167;52.164;10.530;2024-01-30T04:35:49;5.50;35.20
10245;DHT22;5167;52.164;10.530;2024-01-30T04:38:15;5.60;35.60
10245;DHT22;5167;52.164;10.530;2024-01-30T04:40:40;5.70;35.80
10245;DHT22;5167;52.164;10.530;2024-01-30T04:43:06;5.70;35.20
10245;DHT22;5167;52.164;10.530;2024-01-30T04:45:31;5.70;35.40
10245;DHT22;5167;52.164;10.530;2024-01-30T04:47:57;5.70;35.10
10245;DHT22;5167;52.164;10.530;2024-01-30T04:50:23;5.80;35.40
10245;DHT22;5167;52.164;10.530;2024-01-30T04:52:48;5.70;35.00
10245;DHT22;5167;52.164;10.530;2024-01-30T04:55:14;5.70;35.20
10245;DHT22;5167;52.164;10.530;2024-01-30T04:57:40;5.70;35.00
10245;DHT22;5167;52.164;10.530;2024-01-30T05:00:06;5.70;35.60
10245;DHT22;5167;52.164;10.530;2024-01-30T05:02:31;5.70;35.40
10245;DHT22;5167;52.164;10.530;2024-01-30T05:04:57;5.80;35.10
10245;DHT22;5167;52.164;10.530;2024-01-30T05:07:25;5.70;35.30
10245;DHT22;5167;52.164;10.530;2024-01-30T05:09:51;5.80;35.20
10245;DHT22;5167;52.164;10.530;2024-01-30T05:12:16;5.70;35.90
10245;DHT22;5167;52.164;10.530;2024-01-30T05:14:42;5.70;36.80
10245;DHT22;5167;52.164;10.530;2024-01-30T05:17:07;5.70;37.10
10245;DHT22;5167;52.164;10.530;2024-01-30T05:19:35;5.70;37.50
10245;DHT22;5167;52.164;10.530;2024-01-30T05:22:01;5.70;38.00
10245;DHT22;5167;52.164;10.530;2024-01-30T05:24:26;5.80;38.10
10245;DHT22;5167;52.164;10.530;2024-01-30T05:26:52;5.90;38.70
10245;DHT22;5167;52.164;10.530;2024-01-30T05:29:17;5.90;38.00
10245;DHT22;5167;52.164;10.530;2024-01-30T05:31:43;5.90;37.90
10245;DHT22;5167;52.164;10.530;2024-01-30T05:34:08;5.90;37.60
10245;DHT22;5167;52.164;10.530;2024-01-30T05:36:34;5.90;37.60
10245;DHT22;5167;52.164;10.530;2024-01-30T05:39:00;5.90;37.60
10245;DHT22;5167;52.164;10.530;2024-01-30T05:41:25;6.00;36.90
10245;DHT22;5167;52.164;10.530;2024-01-30T05:43:51;6.00;36.50
10245;DHT22;5167;52.164;10.530;2024-01-30T05:46:16;6.00;35.90
10245;DHT22;5167;52.164;10.530;2024-01-30T05:48:42;6.00;35.40
10245;DHT22;5167;52.164;10.530;2024-01-30T05:51:08;6.00;34.60
10245;DHT22;5167;52.164;10.530;2024-01-30T05:53:33;6.00;34.30
10245;DHT22;5167;52.164;10.530;2024-01-30T05:56:03;5.90;34.50
10245;DHT22;5167;52.164;10.530;2024-01-30T05:58:28;5.90;34.30
10245;DHT22;5167;52.164;10.530;2024-01-30T06:00:54;5.90;34.20
10245;DHT22;5167;52.164;10.530;2024-01-30T06:03:20;5.80;34.10
10245;DHT22;5167;52.164;10.530;2024-01-30T06:05:45;5.80;34.00
10245;DHT22;5167;52.164;10.530;2024-01-30T06:08:11;5.80;34.10
10245;DHT22;5167;52.164;10.530;2024-01-30T06:10:36;5.80;34.00
10245;DHT22;5167;52.164;10.530;2024-01-30T06:13:02;5.80;34.20
10245;DHT22;5167;52.164;10.530;2024-01-30T06:15:27;5.70;34.50
10245;DHT22;5167;52.164;10.530;2024-01-30T06:17:55;5.70;34.90
10245;DHT22;5167;52.164;10.530;2024-01-30T06:20:20;5.70;34.70
10245;DHT22;5167;52.164;10.530;2024-01-30T06:22:46;5.70;34.70
10245;DHT22;5167;52.164;10.530;2024-01-30T06:25:11;5.60;34.00
10245;DHT22;5167;52.164;10.530;2024-01-30T06:27:37;5.50;34.70
10245;DHT22;5167;52.164;10.530;2024-01-30T06:30:04;5.50;35.40
10245;DHT22;5167;52.164;10.530;2024-01-30T06:32:29;5.50;36.20
10245;DHT22;5167;52.164;10.530;2024-01-30T06:35:00;5.40;36.10
10245;DHT22;5167;52.164;10.530;2024-01-30T06:37:25;5.50;36.70
10245;DHT22;5167;52.164;10.530;2024-01-30T06:39:51;5.40;35.90
10245;DHT22;5167;52.164;10.530;2024-01-30T06:42:17;5.50;36.20
10245;DHT22;5167;52.164;10.530;2024-01-30T06:44:43;5.50;35.60
10245;DHT22;5167;52.164;10.530;2024-01-30T06:47:08;5.50;36.00
10245;DHT22;5167;52.164;10.530;2024-01-30T06:49:34;5.50;36.20
10245;DHT22;5167;52.164;10.530;2024-01-30T06:52:00;5.50;36.20
10245;DHT22;5167;52.164;10.530;2024-01-30T06:54:25;5.50;36.30
10245;DHT22;5167;52.164;10.530;2024-01-30T06:56:51;5.50;36.50
10245;DHT22;5167;52.164;10.530;2024-01-30T06:59:16;5.60;36.50
10245;DHT22;5167;52.164;10.530;2024-01-30T07:01:42;5.50;36.20
10245;DHT22;5167;52.164;10.530;2024-01-30T07:04:07;5.50;36.10
10245;DHT22;5167;52.164;10.530;2024-01-30T07:06:33;5.40;36.90
10245;DHT22;5167;52.164;10.530;2024-01-30T07:08:58;5.30;37.10
10245;DHT22;5167;52.164;10.530;2024-01-30T07:11:24;5.30;38.00
10245;DHT22;5167;52.164;10.530;2024-01-30T07:13:52;5.40;37.80
10245;DHT22;5167;52.164;10.530;2024-01-30T07:16:18;5.40;38.20
10245;DHT22;5167;52.164;10.530;2024-01-30T07:18:44;5.40;38.70
10245;DHT22;5167;52.164;10.530;2024-01-30T07:21:09;5.50;38.70
10245;DHT22;5167;52.164;10.530;2024-01-30T07:23:35;5.50;38.90
10245;DHT22;5167;52.164;10.530;2024-01-30T07:26:04;5.50;39.30
10245;DHT22;5167;52.164;10.530;2024-01-30T07:28:30;5.60;39.50
10245;DHT22;5167;52.164;10.530;2024-01-30T07:30:55;5.60;39.50
10245;DHT22;5167;52.164;10.530;2024-01-30T07:33:21;5.60;39.80
10245;DHT22;5167;52.164;10.530;2024-01-30T07:35:46;5.70;40.60
10245;DHT22;5167;52.164;10.530;2024-01-30T07:38:12;5.60;40.20
10245;DHT22;5167;52.164;10.530;2024-01-30T07:40:37;5.70;40.00
10245;DHT22;5167;52.164;10.530;2024-01-30T07:43:03;5.70;40.20
10245;DHT22;5167;52.164;10.530;2024-01-30T07:45:29;5.70;39.40
10245;DHT22;5167;52.164;10.530;2024-01-30T07:47:58;5.60;39.60
10245;DHT22;5167;52.164;10.530;2024-01-30T07:50:25;5.50;39.70
10245;DHT22;5167;52.164;10.530;2024-01-30T07:52:50;5.50;40.40
10245;DHT22;5167;52.164;10.530;2024-01-30T07:55:23;5.60;40.50
10245;DHT22;5167;52.164;10.530;2024-01-30T07:57:52;5.70;40.10
10245;DHT22;5167;52.164;10.530;2024-01-30T08:00:18;5.70;40.90
10245;DHT22;5167;52.164;10.530;2024-01-30T08:02:44;5.80;40.50
10245;DHT22;5167;52.164;10.530;2024-01-30T08:05:10;6.00;41.00
10245;DHT22;5167;52.164;10.530;2024-01-30T08:07:36;6.20;40.10
10245;DHT22;5167;52.164;10.530;2024-01-30T08:10:02;6.10;40.10
10245;DHT22;5167;52.164;10.530;2024-01-30T08:12:28;6.00;40.10
10245;DHT22;5167;52.164;10.530;2024-01-30T08:14:53;6.10;40.10
10245;DHT22;5167;52.164;10.530;2024-01-30T08:17:19;6.20;39.50
10245;DHT22;5167;52.164;10.530;2024-01-30T08:19:44;6.20;39.40
10245;DHT22;5167;52.164;10.530;2024-01-30T08:22:10;6.20;39.10
10245;DHT22;5167;52.164;10.530;2024-01-30T08:24:35;6.20;39.00
10245;DHT22;5167;52.164;10.530;2024-01-30T08:27:00;6.30;39.00
10245;DHT22;5167;52.164;10.530;2024-01-30T08:29:28;6.40;37.90
10245;DHT22;5167;52.164;10.530;2024-01-30T08:31:53;6.40;38.30
10245;DHT22;5167;52.164;10.530;2024-01-30T08:34:21;6.30;38.20
10245;DHT22;5167;52.164;10.530;2024-01-30T08:36:46;6.20;37.70
10245;DHT22;5167;52.164;10.530;2024-01-30T08:39:12;6.30;37.60
10245;DHT22;5167;52.164;10.530;2024-01-30T08:41:37;6.40;37.90
10245;DHT22;5167;52.164;10.530;2024-01-30T08:44:02;6.30;36.80
10245;DHT22;5167;52.164;10.530;2024-01-30T08:46:29;6.30;37.00
10245;DHT22;5167;52.164;10.530;2024-01-30T08:48:55;6.40;37.00
10245;DHT22;5167;52.164;10.530;2024-01-30T08:51:21;6.30;36.40
10245;DHT22;5167;52.164;10.530;2024-01-30T08:53:47;6.40;36.50
10245;DHT22;5167;52.164;10.530;2024-01-30T08:56:12;6.40;36.20
10245;DHT22;5167;52.164;10.530;2024-01-30T08:58:39;6.50;36.40
10245;DHT22;5167;52.164;10.530;2024-01-30T09:01:05;6.50;36.20
10245;DHT22;5167;52.164;10.530;2024-01-30T09:03:31;6.50;36.00
10245;DHT22;5167;52.164;10.530;2024-01-30T09:05:56;6.60;36.20
10245;DHT22;5167;52.164;10.530;2024-01-30T09:08:22;6.40;36.10
10245;DHT22;5167;52.164;10.530;2024-01-30T09:10:47;6.60;36.60
10245;DHT22;5167;52.164;10.530;2024-01-30T09:13:13;6.60;36.50
10245;DHT22;5167;52.164;10.530;2024-01-30T09:15:39;6.70;36.80
10245;DHT22;5167;52.164;10.530;2024-01-30T09:18:05;6.70;36.70
10245;DHT22;5167;52.164;10.530;2024-01-30T09:20:31;6.80;36.40
10245;DHT22;5167;52.164;10.530;2024-01-30T09:22:56;6.80;36.40
10245;DHT22;5167;52.164;10.530;2024-01-30T09:25:21;6.80;36.20
10245;DHT22;5167;52.164;10.530;2024-01-30T09:27:47;6.80;35.90
10245;DHT22;5167;52.164;10.530;2024-01-30T09:30:12;6.90;36.60
10245;DHT22;5167;52.164;10.530;2024-01-30T09:32:40;7.00;35.40
10245;DHT22;5167;52.164;10.530;2024-01-30T09:35:05;6.90;35.20
10245;DHT22;5167;52.164;10.530;2024-01-30T09:37:31;7.00;35.20
10245;DHT22;5167;52.164;10.530;2024-01-30T09:39:57;6.90;35.10
10245;DHT22;5167;52.164;10.530;2024-01-30T09:42:34;7.20;35.30
10245;DHT22;5167;52.164;10.530;2024-01-30T09:45:03;7.00;35.50
10245;DHT22;5167;52.164;10.530;2024-01-30T09:47:40;7.10;35.70
10245;DHT22;5167;52.164;10.530;2024-01-30T09:50:10;7.10;35.30
10245;DHT22;5167;52.164;10.530;2024-01-30T09:52:36;7.10;34.20
10245;DHT22;5167;52.164;10.530;2024-01-30T09:55:03;7.20;34.60
10245;DHT22;5167;52.164;10.530;2024-01-30T09:57:28;7.20;33.60
10245;DHT22;5167;52.164;10.530;2024-01-30T09:59:54;7.50;33.50
10245;DHT22;5167;52.164;10.530;2024-01-30T10:02:20;7.30;33.60
10245;DHT22;5167;52.164;10.530;2024-01-30T10:04:49;7.50;33.70
10245;DHT22;5167;52.164;10.530;2024-01-30T10:07:16;7.50;33.30
10245;DHT22;5167;52.164;10.530;2024-01-30T10:09:41;7.50;34.20
10245;DHT22;5167;52.164;10.530;2024-01-30T10:12:07;7.60;33.60
10245;DHT22;5167;52.164;10.530;2024-01-30T10:14:34;7.70;32.80
10245;DHT22;5167;52.164;10.530;2024-01-30T10:17:03;7.80;32.30
10245;DHT22;5167;52.164;10.530;2024-01-30T10:19:29;7.90;32.50
10245;DHT22;5167;52.164;10.530;2024-01-30T10:21:55;8.00;31.60
10245;DHT22;5167;52.164;10.530;2024-01-30T10:24:24;8.00;31.60
10245;DHT22;5167;52.164;10.530;2024-01-30T10:26:50;8.20;30.90
10245;DHT22;5167;52.164;10.530;2024-01-30T10:29:17;8.20;30.90
10245;DHT22;5167;52.164;10.530;2024-01-30T10:31:42;8.20;30.10
10245;DHT22;5167;52.164;10.530;2024-01-30T10:34:08;8.30;30.30
10245;DHT22;5167;52.164;10.530;2024-01-30T10:36:39;8.40;30.50
10245;DHT22;5167;52.164;10.530;2024-01-30T10:39:06;8.50;29.10
10245;DHT22;5167;52.164;10.530;2024-01-30T10:41:43;8.60;29.70
10245;DHT22;5167;52.164;10.530;2024-01-30T10:44:09;8.60;29.30
10245;DHT22;5167;52.164;10.530;2024-01-30T10:46:38;8.80;29.30
10245;DHT22;5167;52.164;10.530;2024-01-30T10:49:04;8.80;28.90
10245;DHT22;5167;52.164;10.530;2024-01-30T10:51:31;8.90;28.70
10245;DHT22;5167;52.164;10.530;2024-01-30T10:53:57;9.00;28.60
10245;DHT22;5167;52.164;10.530;2024-01-30T10:56:24;9.00;28.30
10245;DHT22;5167;52.164;10.530;2024-01-30T10:58:53;9.20;28.30
10245;DHT22;5167;52.164;10.530;2024-01-30T11:01:20;9.20;28.50
10245;DHT22;5167;52.164;10.530;2024-01-30T11:03:54;9.30;28.60
10245;DHT22;5167;52.164;10.530;2024-01-30T11:06:25;9.30;29.10
10245;DHT22;5167;52.164;10.530;2024-01-30T11:09:04;9.50;29.80
10245;DHT22;5167;52.164;10.530;2024-01-30T11:12:00;9.90;30.20
10245;DHT22;5167;52.164;10.530;2024-01-30T11:14:26;9.90;28.70
10245;DHT22;5167;52.164;10.530;2024-01-30T11:16:52;10.10;28.20
10245;DHT22;5167;52.164;10.530;2024-01-30T11:19:24;10.20;27.80
10245;DHT22;5167;52.164;10.530;2024-01-30T11:21:54;10.30;27.90
10245;DHT22;5167;52.164;10.530;2024-01-30T11:24:25;10.40;26.80
10245;DHT22;5167;52.164;10.530;2024-01-30T11:26:58;10.60;25.10
10245;DHT22;5167;52.164;10.530;2024-01-30T11:29:30;10.80;24.70
10245;DHT22;5167;52.164;10.530;2024-01-30T11:31:58;11.00;23.70
10245;DHT22;5167;52.164;10.530;2024-01-30T11:34:24;11.20;22.20
10245;DHT22;5167;52.164;10.530;2024-01-30T11:36:58;11.30;20.00
10245;DHT22;5167;52.164;10.530;2024-01-30T11:39:25;11.40;20.30
10245;DHT22;5167;52.164;10.530;2024-01-30T11:41:52;11.70;19.10
10245;DHT22;5167;52.164;10.530;2024-01-30T11:44:19;11.70;18.00
10245;DHT22;5167;52.164;10.530;2024-01-30T11:46:46;11.90;18.20
10245;DHT22;5167;52.164;10.530;2024-01-30T11:49:12;11.80;16.40
10245;DHT22;5167;52.164;10.530;2024-01-30T11:51:38;12.00;15.80
10245;DHT22;5167;52.164;10.530;2024-01-30T11:54:03;12.00;16.00
10245;DHT22;5167;52.164;10.530;2024-01-30T11:56:29;12.10;15.00
10245;DHT22;5167;52.164;10.530;2024-01-30T11:58:54;12.10;14.00
10245;DHT22;5167;52.164;10.530;2024-01-30T12:01:20;12.20;13.70
10245;DHT22;5167;52.164;10.530;2024-01-30T12:03:51;12.20;13.60
10245;DHT22;5167;52.164;10.530;2024-01-30T12:06:17;12.30;13.60
10245;DHT22;5167;52.164;10.530;2024-01-30T12:08:43;12.40;13.20
10245;DHT22;5167;52.164;10.530;2024-01-30T12:11:09;12.40;13.10
10245;DHT22;5167;52.164;10.530;2024-01-30T12:13:35;12.40;12.20
10245;DHT22;5167;52.164;10.530;2024-01-30T12:16:01;12.40;12.40
10245;DHT22;5167;52.164;10.530;2024-01-30T12:18:26;12.50;11.80
10245;DHT22;5167;52.164;10.530;2024-01-30T12:20:59;12.60;11.70
10245;DHT22;5167;52.164;10.530;2024-01-30T12:23:25;12.60;11.20
10245;DHT22;5167;52.164;10.530;2024-01-30T12:25:52;12.60;11.50
10245;DHT22;5167;52.164;10.530;2024-01-30T12:28:17;12.60;11.40
10245;DHT22;5167;52.164;10.530;2024-01-30T12:30:43;12.60;11.10
10245;DHT22;5167;52.164;10.530;2024-01-30T12:33:09;12.70;11.20
10245;DHT22;5167;52.164;10.530;2024-01-30T12:35:35;12.70;10.60
10245;DHT22;5167;52.164;10.530;2024-01-30T12:38:01;12.70;10.30
10245;DHT22;5167;52.164;10.530;2024-01-30T12:40:27;12.70;10.30
10245;DHT22;5167;52.164;10.530;2024-01-30T12:42:54;12.80;9.90
10245;DHT22;5167;52.164;10.530;2024-01-30T12:45:19;12.80;10.30
10245;DHT22;5167;52.164;10.530;2024-01-30T12:47:47;12.90;10.70
10245;DHT22;5167;52.164;10.530;2024-01-30T12:50:12;13.00;10.90
10245;DHT22;5167;52.164;10.530;2024-01-30T12:52:41;13.10;10.90
10245;DHT22;5167;52.164;10.530;2024-01-30T12:55:06;13.00;10.00
10245;DHT22;5167;52.164;10.530;2024-01-30T12:57:32;13.10;10.00
10245;DHT22;5167;52.164;10.530;2024-01-30T12:59:57;13.10;9.90
10245;DHT22;5167;52.164;10.530;2024-01-30T13:02:23;13.10;9.80
10245;DHT22;5167;52.164;10.530;2024-01-30T13:04:49;13.00;9.30
10245;DHT22;5167;52.164;10.530;2024-01-30T13:07:15;13.10;9.50
10245;DHT22;5167;52.164;10.530;2024-01-30T13:09:40;13.10;9.60
10245;DHT22;5167;52.164;10.530;2024-01-30T13:12:06;13.10;10.30
10245;DHT22;5167;52.164;10.530;2024-01-30T13:14:32;13.10;9.90
10245;DHT22;5167;52.164;10.530;2024-01-30T13:16:58;13.20;9.30
10245;DHT22;5167;52.164;10.530;2024-01-30T13:19:23;13.20;9.80
10245;DHT22;5167;52.164;10.530;2024-01-30T13:21:49;13.10;9.50
10245;DHT22;5167;52.164;10.530;2024-01-30T13:24:14;13.10;9.30
10245;DHT22;5167;52.164;10.530;2024-01-30T13:26:40;13.10;9.40
10245;DHT22;5167;52.164;10.530;2024-01-30T13:29:07;13.10;8.70
10245;DHT22;5167;52.164;10.530;2024-01-30T13:31:33;13.00;9.50
10245;DHT22;5167;52.164;10.530;2024-01-30T13:33:59;13.00;10.00
10245;DHT22;5167;52.164;10.530;2024-01-30T13:36:25;13.10;10.00
10245;DHT22;5167;52.164;10.530;2024-01-30T13:38:51;13.00;9.50
10245;DHT22;5167;52.164;10.530;2024-01-30T13:41:16;13.10;9.80
10245;DHT22;5167;52.164;10.530;2024-01-30T13:43:43;13.10;9.60
10245;DHT22;5167;52.164;10.530;2024-01-30T13:46:09;13.10;10.00
10245;DHT22;5167;52.164;10.530;2024-01-30T13:48:35;13.10;9.70
10245;DHT22;5167;52.164;10.530;2024-01-30T13:51:00;13.20;9.90
10245;DHT22;5167;52.164;10.530;2024-01-30T13:53:26;13.10;9.40
10245;DHT22;5167;52.164;10.530;2024-01-30T13:55:51;13.10;9.70
10245;DHT22;5167;52.164;10.530;2024-01-30T13:58:17;13.10;9.50
10245;DHT22;5167;52.164;10.530;2024-01-30T14:00:42;13.30;9.20
10245;DHT22;5167;52.164;10.530;2024-01-30T14:03:08;13.10;9.60
10245;DHT22;5167;52.164;10.530;2024-01-30T14:05:34;13.10;9.60
10245;DHT22;5167;52.164;10.530;2024-01-30T14:08:00;13.10;9.00
10245;DHT22;5167;52.164;10.530;2024-01-30T14:10:26;13.20;9.00
10245;DHT22;5167;52.164;10.530;2024-01-30T14:12:51;13.20;9.20
10245;DHT22;5167;52.164;10.530;2024-01-30T14:15:17;13.20;9.70
10245;DHT22;5167;52.164;10.530;2024-01-30T14:17:45;13.20;9.20
10245;DHT22;5167;52.164;10.530;2024-01-30T14:20:14;13.20;9.30
10245;DHT22;5167;52.164;10.530;2024-01-30T14:22:39;13.10;9.80
10245;DHT22;5167;52.164;10.530;2024-01-30T14:25:05;13.10;10.30
10245;DHT22;5167;52.164;10.530;2024-01-30T14:27:31;13.10;9.70
10245;DHT22;5167;52.164;10.530;2024-01-30T14:29:57;13.10;9.70
10245;DHT22;5167;52.164;10.530;2024-01-30T14:32:23;13.10;9.30
10245;DHT22;5167;52.164;10.530;2024-01-30T14:34:52;13.00;9.50
10245;DHT22;5167;52.164;10.530;2024-01-30T14:37:18;13.00;10.00
10245;DHT22;5167;52.164;10.530;2024-01-30T14:39:44;13.00;9.40
10245;DHT22;5167;52.164;10.530;2024-01-30T14:42:10;13.00;9.70
10245;DHT22;5167;52.164;10.530;2024-01-30T14:44:35;13.00;10.60
10245;DHT22;5167;52.164;10.530;2024-01-30T14:47:02;13.10;10.10
10245;DHT22;5167;52.164;10.530;2024-01-30T14:49:28;13.10;10.30
10245;DHT22;5167;52.164;10.530;2024-01-30T14:51:53;12.90;10.30
10245;DHT22;5167;52.164;10.530;2024-01-30T14:54:18;12.90;10.20
10245;DHT22;5167;52.164;10.530;2024-01-30T14:56:44;12.90;10.90
10245;DHT22;5167;52.164;10.530;2024-01-30T14:59:10;13.00;10.80
10245;DHT22;5167;52.164;10.530;2024-01-30T15:01:36;12.90;11.00
10245;DHT22;5167;52.164;10.530;2024-01-30T15:04:01;12.90;11.10
10245;DHT22;5167;52.164;10.530;2024-01-30T15:06:27;12.90;11.00
10245;DHT22;5167;52.164;10.530;2024-01-30T15:08:53;12.90;11.50
10245;DHT22;5167;52.164;10.530;2024-01-30T15:11:19;12.90;11.60
10245;DHT22;5167;52.164;10.530;2024-01-30T15:13:44;12.80;12.50
10245;DHT22;5167;52.164;10.530;2024-01-30T15:16:10;12.70;13.10
10245;DHT22;5167;52.164;10.530;2024-01-30T15:18:35;12.70;12.80
10245;DHT22;5167;52.164;10.530;2024-01-30T15:21:01;12.70;12.20
10245;DHT22;5167;52.164;10.530;2024-01-30T15:23:26;12.70;12.70
10245;DHT22;5167;52.164;10.530;2024-01-30T15:25:52;12.70;12.40
10245;DHT22;5167;52.164;10.530;2024-01-30T15:28:17;12.80;12.50
10245;DHT22;5167;52.164;10.530;2024-01-30T15:30:44;12.70;13.00
10245;DHT22;5167;52.164;10.530;2024-01-30T15:33:10;12.80;12.70
10245;DHT22;5167;52.164;10.530;2024-01-30T15:35:35;12.70;13.20